Time;durP1;ratioP1;P1;durP2;ratioP2;P2;SDS_P1;SDS_P2;PMS_P1;PMS_P2;Temp;Humidity;BMP_temperature;BMP_pressure;BME280_temperature;BME280_humidity;BME280_pressure;Samples;Min_cycle;Max_cycle;Signal;HPM_P1;HPM_P2
2022/02/24 00:00:23;;;;;;;9.50;4.60;;;;;;;;;;5020457;28;20206;-80
2022/02/24 00:02:50;;;;;;;7.70;3.80;;;8.50;99.90;;;;;;5023498;28;20026;-80
2022/02/24 00:05:17;;;;;;;9.25;3.72;;;;;;;;;;5028196;28;20048;-80
2022/02/24 00:07:42;;;;;;;9.45;4.90;;;8.50;99.90;;;;;;5029570;28;20029;-82
2022/02/24 00:10:11;;;;;;;12.07;4.38;;;12.40;99.90;;;;;;5008184;28;20048;-80
2022/02/24 00:12:38;;;;;;;9.48;3.70;;;8.60;99.90;;;;;;5003715;28;20025;-79
2022/02/24 00:15:06;;;;;;;9.88;3.50;;;9.00;99.90;;;;;;5005371;28;20026;-81
2022/02/24 00:17:32;;;;;;;9.23;3.35;;;8.60;99.90;;;;;;5007692;28;20045;-78
2022/02/24 00:19:58;;;;;;;7.65;3.40;;;8.70;99.90;;;;;;5024705;28;20022;-81
2022/02/24 00:22:24;;;;;;;6.90;3.63;;;7.60;99.90;;;;;;5025157;28;20496;-78
2022/02/24 00:24:50;;;;;;;8.38;3.45;;;9.40;99.90;;;;;;5020488;28;20022;-79
2022/02/24 00:27:16;;;;;;;6.80;3.40;;;8.70;99.90;;;;;;5009077;28;20048;-79
2022/02/24 00:29:44;;;;;;;11.10;3.53;;;8.70;99.90;;;;;;5024042;28;20057;-79
2022/02/24 00:32:11;;;;;;;7.63;3.08;;;8.70;99.90;;;;;;5024784;28;21469;-81
2022/02/24 00:34:37;;;;;;;6.78;3.00;;;8.70;99.90;;;;;;5009220;28;20034;-80
2022/02/24 00:37:03;;;;;;;7.32;2.70;;;11.30;99.90;;;;;;5027340;28;20084;-81
2022/02/24 00:39:29;;;;;;;12.38;4.20;;;8.80;99.90;;;;;;5025371;28;20049;-81
2022/02/24 00:41:55;;;;;;;11.82;3.15;;;8.90;99.90;;;;;;5013581;28;20039;-80
2022/02/24 00:44:21;;;;;;;7.72;2.78;;;8.60;99.90;;;;;;5009491;28;20117;-79
2022/02/24 00:46:47;;;;;;;6.78;3.10;;;8.90;99.90;;;;;;5027347;28;20081;-78
2022/02/24 00:49:13;;;;;;;7.18;3.28;;;10.30;99.90;;;;;;5027235;28;20798;-79
2022/02/24 00:51:39;;;;;;;6.53;3.00;;;11.50;99.90;;;;;;5027489;28;20028;-80
2022/02/24 00:54:05;;;;;;;8.48;3.03;;;;;;;;;;5028522;28;20026;-80
2022/02/24 00:56:31;;;;;;;11.07;3.38;;;9.00;99.90;;;;;;5028607;28;20034;-80
2022/02/24 00:58:57;;;;;;;6.03;2.92;;;8.90;99.90;;;;;;5027734;28;20045;-81
2022/02/24 01:01:23;;;;;;;7.60;3.30;;;8.80;99.90;;;;;;5011071;28;20021;-78
2022/02/24 01:03:49;;;;;;;8.10;3.08;;;8.90;99.90;;;;;;5028129;28;20114;-78
2022/02/24 01:06:15;;;;;;;8.10;3.30;;;8.90;99.90;;;;;;5029454;28;20056;-79
2022/02/24 01:08:40;;;;;;;7.43;3.40;;;8.90;99.90;;;;;;5027734;28;20962;-79
2022/02/24 01:11:06;;;;;;;12.38;3.35;;;8.90;99.90;;;;;;5001949;28;20033;-80
2022/02/24 01:13:32;;;;;;;6.50;3.20;;;8.90;99.90;;;;;;5021337;28;20030;-80
2022/02/24 01:15:58;;;;;;;7.72;3.30;;;8.90;99.90;;;;;;5004039;28;20094;-80
2022/02/24 01:18:26;;;;;;;7.28;3.08;;;8.80;99.90;;;;;;5017767;28;20049;-81
2022/02/24 01:20:52;;;;;;;6.60;3.38;;;11.40;99.90;;;;;;5004293;28;20541;-79
2022/02/24 01:23:18;;;;;;;6.97;2.70;;;10.40;99.90;;;;;;5018614;28;20025;-80
2022/02/24 01:25:44;;;;;;;9.60;2.90;;;;;;;;;;5016329;28;20033;-79
2022/02/24 01:28:10;;;;;;;6.10;2.97;;;;;;;;;;5018735;28;20524;-79
2022/02/24 01:30:36;;;;;;;7.85;3.08;;;8.70;99.90;;;;;;5018705;28;20026;-79
2022/02/24 01:33:02;;;;;;;6.97;3.10;;;8.70;99.90;;;;;;5003980;28;20036;-79
2022/02/24 01:35:27;;;;;;;7.38;3.00;;;8.70;99.90;;;;;;5016270;28;20089;-80
2022/02/24 01:37:54;;;;;;;9.57;3.55;;;;;;;;;;5019084;28;20081;-79
2022/02/24 01:40:20;;;;;;;13.38;5.00;;;;;;;;;;5015990;28;21118;-80
2022/02/24 01:42:46;;;;;;;5.65;2.85;;;8.70;99.90;;;;;;5022136;28;20060;-80
2022/02/24 01:45:13;;;;;;;7.20;2.90;;;8.70;99.90;;;;;;5022633;28;20033;-80
2022/02/24 01:47:41;;;;;;;10.93;4.47;;;8.50;99.90;;;;;;5024076;28;20045;-80
2022/02/24 01:50:09;;;;;;;9.05;3.38;;;8.70;99.90;;;;;;5031202;28;20022;-79
2022/02/24 01:52:35;;;;;;;8.27;3.30;;;8.70;99.90;;;;;;5022704;28;20097;-78
2022/02/24 01:55:03;;;;;;;7.57;2.97;;;8.60;99.90;;;;;;5003085;28;20022;-81
2022/02/24 01:57:29;;;;;;;10.77;2.92;;;;;;;;;;5022158;28;20077;-78
2022/02/24 01:59:55;;;;;;;6.50;3.25;;;8.50;99.90;;;;;;5022026;28;20018;-80
2022/02/24 02:02:22;;;;;;;17.67;6.05;;;;;;;;;;5024285;28;20025;-79
2022/02/24 02:04:48;;;;;;;5.72;2.92;;;;;;;;;;5021167;28;20036;-80
2022/02/24 02:07:14;;;;;;;9.63;4.18;;;8.50;99.90;;;;;;5022881;28;20021;-80
2022/02/24 02:09:43;;;;;;;9.18;3.40;;;8.40;99.90;;;;;;5011552;28;20025;-80
2022/02/24 02:12:11;;;;;;;7.95;3.00;;;11.70;99.90;;;;;;5029148;28;20037;-81
2022/02/24 02:14:38;;;;;;;9.80;4.47;;;8.40;99.90;;;;;;5014831;28;20091;-80
2022/02/24 02:17:04;;;;;;;12.98;4.03;;;11.50;99.90;;;;;;5009268;28;20034;-80
2022/02/24 02:19:30;;;;;;;8.45;3.40;;;8.50;99.90;;;;;;5027783;28;20018;-79
2022/02/24 02:21:56;;;;;;;6.88;2.85;;;8.40;99.90;;;;;;5033004;28;20013;-79
2022/02/24 02:24:22;;;;;;;8.38;3.45;;;;;;;;;;5035467;28;20030;-78
2022/02/24 02:26:49;;;;;;;8.73;2.80;;;8.30;99.90;;;;;;5031730;28;20025;-80
2022/02/24 02:29:16;;;;;;;7.20;2.88;;;8.90;99.90;;;;;;5014257;28;20002;-78
2022/02/24 02:31:42;;;;;;;7.63;2.95;;;8.20;99.90;;;;;;5027573;28;20042;-79
2022/02/24 02:34:16;;;;;;;7.97;2.95;;;10.20;99.90;;;;;;5032576;28;20049;-79
2022/02/24 02:36:45;;;;;;;4.95;2.30;;;8.30;99.90;;;;;;5009874;28;20149;-79
2022/02/24 02:39:13;;;;;;;6.38;3.47;;;8.40;99.90;;;;;;5030230;28;20074;-79
2022/02/24 02:41:41;;;;;;;7.30;2.92;;;9.80;99.90;;;;;;5030497;28;20042;-79
2022/02/24 02:44:08;;;;;;;10.80;2.75;;;8.40;99.90;;;;;;5008550;28;20111;-78
2022/02/24 02:46:34;;;;;;;7.50;3.00;;;9.90;99.90;;;;;;5018845;28;20056;-77
2022/02/24 02:49:00;;;;;;;6.30;2.65;;;;;;;;;;5001887;28;20034;-80
2022/02/24 02:51:26;;;;;;;10.10;2.65;;;8.40;99.90;;;;;;5016008;28;20040;-81
2022/02/24 02:53:52;;;;;;;11.68;3.42;;;8.40;99.90;;;;;;5016700;28;20026;-79
2022/02/24 02:56:18;;;;;;;6.32;2.38;;;9.40;99.90;;;;;;5018507;28;20041;-81
2022/02/24 02:58:44;;;;;;;6.30;2.58;;;8.40;99.90;;;;;;4993983;28;20030;-81
2022/02/24 03:01:10;;;;;;;7.53;2.97;;;8.40;99.90;;;;;;5016125;28;20495;-79
2022/02/24 03:03:35;;;;;;;7.45;3.05;;;8.50;99.90;;;;;;5015580;28;20033;-79
2022/02/24 03:06:02;;;;;;;8.10;2.85;;;9.40;99.90;;;;;;5014425;28;20491;-79
2022/02/24 03:08:28;;;;;;;6.82;2.80;;;8.40;99.90;;;;;;4998717;28;20512;-79
2022/02/24 03:10:54;;;;;;;6.25;2.35;;;9.90;99.90;;;;;;5012073;28;20507;-79
2022/02/24 03:13:20;;;;;;;10.30;2.65;;;8.50;99.90;;;;;;4993770;28;20022;-78
2022/02/24 03:15:46;;;;;;;8.00;2.88;;;8.50;99.90;;;;;;5008760;28;20022;-80
2022/02/24 03:18:12;;;;;;;8.48;2.88;;;8.50;99.90;;;;;;4987799;28;20048;-79
2022/02/24 03:20:38;;;;;;;6.00;2.55;;;10.80;99.90;;;;;;5011524;28;20046;-79
2022/02/24 03:23:07;;;;;;;5.78;2.35;;;9.00;99.90;;;;;;4994064;28;20018;-79
2022/02/24 03:25:34;;;;;;;5.45;2.60;;;8.40;99.90;;;;;;4994940;28;20049;-79
2022/02/24 03:27:59;;;;;;;7.82;2.97;;;9.20;99.90;;;;;;4995310;28;20030;-77
2022/02/24 03:30:27;;;;;;;5.88;2.47;;;8.40;99.90;;;;;;5000226;28;20043;-79
2022/02/24 03:32:53;;;;;;;6.03;2.63;;;8.50;99.90;;;;;;5016052;28;20026;-79
2022/02/24 03:35:20;;;;;;;5.82;2.83;;;8.50;99.90;;;;;;5021072;28;20021;-80
2022/02/24 03:37:46;;;;;;;8.77;2.90;;;8.50;99.90;;;;;;5022770;28;20034;-80
2022/02/24 03:40:13;;;;;;;8.40;3.03;;;10.40;99.90;;;;;;5024969;28;20033;-79
2022/02/24 03:42:39;;;;;;;5.35;2.45;;;8.50;99.90;;;;;;5018055;28;20029;-81
2022/02/24 03:45:07;;;;;;;7.53;2.47;;;8.30;99.90;;;;;;5002755;28;20030;-80
2022/02/24 03:47:33;;;;;;;8.45;3.10;;;8.30;99.90;;;;;;5010562;28;20073;-80
2022/02/24 03:49:59;;;;;;;5.25;2.70;;;8.40;99.90;;;;;;4996806;28;20030;-81
2022/02/24 03:52:24;;;;;;;9.15;2.70;;;8.30;99.90;;;;;;4998579;28;20038;-80
2022/02/24 03:54:50;;;;;;;6.53;2.65;;;8.40;99.90;;;;;;5006067;28;20041;-78
2022/02/24 03:57:16;;;;;;;4.50;2.47;;;8.40;99.90;;;;;;5009254;28;20399;-79
2022/02/24 03:59:42;;;;;;;7.15;3.10;;;8.40;99.90;;;;;;5011571;28;20051;-80
2022/02/24 04:02:08;;;;;;;7.88;2.78;;;8.60;99.90;;;;;;4994295;28;20036;-79
2022/02/24 04:04:35;;;;;;;7.60;2.50;;;9.40;99.90;;;;;;4998115;28;20029;-79
2022/02/24 04:07:01;;;;;;;6.43;2.47;;;8.50;99.90;;;;;;4989693;28;20114;-80
2022/02/24 04:09:27;;;;;;;4.60;2.10;;;8.50;99.90;;;;;;5012345;28;20006;-80
2022/02/24 04:11:53;;;;;;;11.45;2.78;;;;;;;;;;5009904;28;20103;-77
2022/02/24 04:14:19;;;;;;;6.47;2.10;;;8.50;99.90;;;;;;5012037;28;20033;-80
2022/02/24 04:16:44;;;;;;;6.15;2.75;;;8.40;99.90;;;;;;4993251;28;20030;-80
2022/02/24 04:19:10;;;;;;;5.38;2.22;;;10.00;99.90;;;;;;5016303;28;20033;-80
2022/02/24 04:21:36;;;;;;;6.03;2.25;;;9.40;99.90;;;;;;5014578;28;20022;-79
2022/02/24 04:24:02;;;;;;;6.93;2.42;;;8.50;99.90;;;;;;5014854;28;21229;-81
2022/02/24 04:26:28;;;;;;;12.05;2.85;;;8.50;99.90;;;;;;5011825;28;20028;-78
2022/02/24 04:28:54;;;;;;;6.28;2.28;;;8.50;99.90;;;;;;5017217;28;20025;-80
2022/02/24 04:31:20;;;;;;;4.85;2.42;;;8.50;99.90;;;;;;5008350;28;20049;-80
2022/02/24 04:33:45;;;;;;;6.35;2.35;;;7.90;99.90;;;;;;5015989;28;20030;-80
2022/02/24 04:36:11;;;;;;;5.65;2.55;;;8.50;99.90;;;;;;4998897;28;20476;-79
2022/02/24 04:38:37;;;;;;;7.57;2.40;;;8.50;99.90;;;;;;5011712;28;20030;-80
2022/02/24 04:41:03;;;;;;;5.05;2.33;;;8.60;99.90;;;;;;4998573;28;20102;-80
2022/02/24 04:43:29;;;;;;;8.02;3.47;;;8.50;99.90;;;;;;5024104;28;20077;-78
2022/02/24 04:45:55;;;;;;;6.32;2.20;;;8.50;99.90;;;;;;5003646;28;20022;-81
2022/02/24 04:48:21;;;;;;;8.93;3.15;;;8.90;99.90;;;;;;5022691;28;20021;-80
2022/02/24 04:50:47;;;;;;;7.25;2.63;;;8.50;99.90;;;;;;5024740;28;20049;-78
2022/02/24 04:53:14;;;;;;;7.65;2.60;;;8.50;99.90;;;;;;5030293;28;20029;-78
2022/02/24 04:55:40;;;;;;;5.28;2.22;;;8.60;99.90;;;;;;5029226;28;20034;-80
2022/02/24 04:58:06;;;;;;;7.15;2.90;;;10.70;99.90;;;;;;5026989;28;20014;-80
2022/02/24 05:00:31;;;;;;;6.03;2.30;;;8.60;99.90;;;;;;5027781;28;20046;-79
2022/02/24 05:02:57;;;;;;;6.20;2.20;;;8.70;99.90;;;;;;5025989;28;20089;-80
2022/02/24 05:05:23;;;;;;;5.82;2.50;;;8.70;99.90;;;;;;5027761;28;20045;-79
2022/02/24 05:07:49;;;;;;;4.32;2.60;;;8.90;99.90;;;;;;5001367;28;20029;-80
2022/02/24 05:10:15;;;;;;;7.60;2.53;;;8.70;99.90;;;;;;4994480;28;20098;-80
2022/02/24 05:12:41;;;;;;;5.43;2.30;;;8.60;99.90;;;;;;4993168;28;23152;-80
2022/02/24 05:15:07;;;;;;;4.80;2.35;;;8.60;99.90;;;;;;4991669;28;20026;-78
2022/02/24 05:17:33;;;;;;;7.78;2.30;;;8.50;99.90;;;;;;5012350;28;20034;-80
2022/02/24 05:20:03;;;;;;;5.75;2.75;;;8.50;99.90;;;;;;5025704;22;20164;-85
2022/02/24 05:22:29;;;;;;;6.30;2.58;;;8.40;99.90;;;;;;5007251;28;20045;-81
2022/02/24 05:24:55;;;;;;;7.72;2.50;;;8.40;99.90;;;;;;4995886;28;20095;-84
2022/02/24 05:27:20;;;;;;;7.40;2.45;;;8.20;99.90;;;;;;5011393;28;20285;-84
2022/02/24 05:29:46;;;;;;;5.68;2.20;;;10.80;99.90;;;;;;5010418;28;20048;-79
2022/02/24 05:32:12;;;;;;;5.93;2.83;;;8.50;99.90;;;;;;5025212;28;20048;-85
2022/02/24 05:34:38;;;;;;;6.38;2.78;;;8.50;99.90;;;;;;5027406;28;20041;-84
2022/02/24 05:37:04;;;;;;;5.30;2.40;;;8.40;99.90;;;;;;5012409;28;20025;-84
2022/02/24 05:39:29;;;;;;;6.38;3.00;;;8.40;99.90;;;;;;5012861;28;20025;-82
2022/02/24 05:41:55;;;;;;;8.13;2.60;;;8.40;99.90;;;;;;5010965;28;20667;-85
2022/02/24 05:44:21;;;;;;;8.57;3.22;;;8.40;99.90;;;;;;5007477;28;20116;-83
2022/02/24 05:46:47;;;;;;;5.65;2.42;;;10.00;99.90;;;;;;5015289;28;20041;-83
2022/02/24 05:49:15;;;;;;;7.85;2.60;;;8.40;99.90;;;;;;5011615;28;20034;-82
2022/02/24 05:51:41;;;;;;;5.30;2.15;;;10.60;99.90;;;;;;5010166;28;20033;-83
2022/02/24 05:54:07;;;;;;;4.05;2.22;;;8.30;99.90;;;;;;5007755;28;20029;-85
2022/02/24 05:56:32;;;;;;;8.90;2.58;;;8.30;99.90;;;;;;5006165;28;20034;-84
2022/02/24 05:58:58;;;;;;;4.50;2.30;;;8.40;99.90;;;;;;5005116;28;20354;-82
2022/02/24 06:01:24;;;;;;;8.48;2.72;;;8.30;99.90;;;;;;5005649;28;20047;-87
2022/02/24 06:03:49;;;;;;;7.90;2.67;;;8.50;99.90;;;;;;5014576;28;20029;-86
2022/02/24 06:06:15;;;;;;;8.73;2.53;;;8.40;99.90;;;;;;5010389;28;20056;-84
2022/02/24 06:08:40;;;;;;;6.10;3.17;;;8.40;99.90;;;;;;5008229;28;20026;-85
2022/02/24 06:11:06;;;;;;;7.13;2.90;;;8.80;99.90;;;;;;5004637;28;20029;-83
2022/02/24 06:13:32;;;;;;;6.25;2.60;;;10.80;99.90;;;;;;5004094;28;20195;-86
2022/02/24 06:15:59;;;;;;;8.77;3.15;;;8.40;99.90;;;;;;5006407;28;20057;-87
2022/02/24 06:18:25;;;;;;;9.50;3.58;;;8.40;99.90;;;;;;4994068;28;20037;-84
2022/02/24 06:20:50;;;;;;;5.38;2.50;;;9.10;99.90;;;;;;4999088;28;20041;-84
2022/02/24 06:23:16;;;;;;;8.88;3.60;;;8.30;99.90;;;;;;4999157;28;20734;-86
2022/02/24 06:25:42;;;;;;;6.30;3.13;;;8.20;99.90;;;;;;5001278;28;20104;-86
2022/02/24 06:28:07;;;;;;;7.82;3.05;;;8.20;99.90;;;;;;5022240;28;20059;-86
2022/02/24 06:30:33;;;;;;;7.95;3.20;;;8.10;99.90;;;;;;5003727;28;20031;-86
2022/02/24 06:32:58;;;;;;;6.95;2.97;;;8.40;99.90;;;;;;5007462;28;20041;-82
2022/02/24 06:35:24;;;;;;;7.35;3.05;;;8.10;99.90;;;;;;5004445;28;20126;-82
2022/02/24 06:37:50;;;;;;;6.97;2.70;;;8.20;99.90;;;;;;5001009;28;20022;-83
2022/02/24 06:40:15;;;;;;;6.45;2.70;;;10.70;99.90;;;;;;4995853;28;20029;-82
2022/02/24 06:42:41;;;;;;;6.15;2.58;;;8.10;99.90;;;;;;5001489;28;20033;-85
2022/02/24 06:45:07;;;;;;;7.57;3.00;;;8.20;99.90;;;;;;5019937;28;20113;-84
2022/02/24 06:47:33;;;;;;;11.38;3.97;;;8.20;99.90;;;;;;5007011;28;20072;-85
2022/02/24 06:49:59;;;;;;;6.18;2.67;;;8.00;99.90;;;;;;5003881;28;20025;-86
2022/02/24 06:52:24;;;;;;;5.35;3.05;;;8.70;99.90;;;;;;5008089;28;20030;-83
2022/02/24 06:54:50;;;;;;;6.88;2.90;;;8.20;99.90;;;;;;5002875;28;20034;-86
2022/02/24 06:57:16;;;;;;;6.97;2.80;;;8.30;99.90;;;;;;5020795;28;20029;-86
2022/02/24 06:59:42;;;;;;;8.32;2.75;;;8.00;99.90;;;;;;5021445;28;21363;-85
2022/02/24 07:02:11;;;;;;;4.32;2.20;;;8.20;99.90;;;;;;5003126;28;20025;-85
2022/02/24 07:04:36;;;;;;;6.90;2.35;;;8.30;99.90;;;;;;5011426;28;20033;-84
2022/02/24 07:07:02;;;;;;;5.93;2.10;;;8.50;99.90;;;;;;5011513;28;20018;-87
2022/02/24 07:09:28;;;;;;;6.05;2.38;;;8.30;99.90;;;;;;5010450;28;20049;-85
2022/02/24 07:11:55;;;;;;;4.35;1.90;;;8.10;99.90;;;;;;5011829;28;20025;-86
2022/02/24 07:14:21;;;;;;;4.32;2.40;;;8.40;99.90;;;;;;5032269;28;20060;-81
2022/02/24 07:16:47;;;;;;;7.60;2.40;;;9.90;99.90;;;;;;5013023;28;20079;-83
2022/02/24 07:19:14;;;;;;;5.97;2.40;;;8.30;99.90;;;;;;5016586;28;20033;-85
2022/02/24 07:21:40;;;;;;;3.75;1.92;;;8.30;99.90;;;;;;5037442;28;20041;-86
2022/02/24 07:24:06;;;;;;;9.02;2.58;;;8.30;99.90;;;;;;5020932;28;20052;-83
2022/02/24 07:26:31;;;;;;;6.72;2.40;;;8.30;99.90;;;;;;5021464;28;20495;-84
2022/02/24 07:28:57;;;;;;;6.97;2.30;;;9.60;99.90;;;;;;5019868;28;20388;-85
2022/02/24 07:31:23;;;;;;;6.68;2.38;;;8.30;99.90;;;;;;5041641;28;20072;-82
2022/02/24 07:33:49;;;;;;;5.47;2.70;;;9.50;99.90;;;;;;5015263;28;20030;-83
2022/02/24 07:36:15;;;;;;;7.03;3.08;;;8.30;99.90;;;;;;5017991;28;20230;-85
2022/02/24 07:38:42;;;;;;;6.88;2.38;;;8.30;99.90;;;;;;5009204;28;20502;-84
2022/02/24 07:41:10;;;;;;;7.20;2.45;;;9.00;99.90;;;;;;5017517;28;20022;-85
2022/02/24 07:43:36;;;;;;;5.20;2.35;;;8.50;99.90;;;;;;5022136;28;20041;-85
2022/02/24 07:46:02;;;;;;;5.53;2.50;;;8.50;99.90;;;;;;5017659;28;20024;-86
2022/02/24 07:48:28;;;;;;;7.22;2.60;;;8.50;99.90;;;;;;5018553;28;20048;-86
2022/02/24 07:50:58;;;;;;;5.65;2.33;;;8.00;99.90;;;;;;5019507;28;20483;-84
2022/02/24 07:53:24;;;;;;;9.35;2.97;;;9.20;99.90;;;;;;5032054;28;20041;-88
2022/02/24 07:55:50;;;;;;;5.30;2.30;;;8.60;99.90;;;;;;5033163;28;20089;-87
2022/02/24 07:58:16;;;;;;;8.98;2.33;;;8.60;99.90;;;;;;5021287;28;20036;-87
2022/02/24 08:00:45;;;;;;;6.53;2.90;;;8.60;99.90;;;;;;5016384;28;20030;-86
2022/02/24 08:03:10;;;;;;;5.85;2.20;;;8.70;99.90;;;;;;5016671;28;20049;-84
2022/02/24 08:05:36;;;;;;;5.47;2.17;;;8.70;99.90;;;;;;5011122;28;20033;-83
2022/02/24 08:08:02;;;;;;;8.98;3.08;;;8.70;99.90;;;;;;5025088;28;20022;-86
2022/02/24 08:10:28;;;;;;;7.95;2.35;;;8.80;99.90;;;;;;5030516;28;20045;-87
2022/02/24 08:12:54;;;;;;;5.30;2.20;;;8.90;99.90;;;;;;5029074;28;20017;-86
2022/02/24 08:15:21;;;;;;;6.35;2.50;;;8.90;99.90;;;;;;5027043;28;20021;-86
2022/02/24 08:17:48;;;;;;;5.65;2.50;;;9.00;99.90;;;;;;5022564;28;20025;-87
2022/02/24 08:20:15;;;;;;;8.15;2.63;;;9.00;99.90;;;;;;5042693;28;20034;-85
2022/02/24 08:22:45;;;;;;;9.02;2.58;;;9.10;99.90;;;;;;5027689;28;20017;-87
2022/02/24 08:25:13;;;;;;;6.57;2.28;;;9.10;99.90;;;;;;5022879;28;20022;-83
2022/02/24 08:27:39;;;;;;;7.10;2.30;;;9.20;99.90;;;;;;5026248;28;20034;-82
2022/02/24 08:30:09;;;;;;;5.53;2.13;;;9.40;99.90;;;;;;5025543;28;20026;-85
2022/02/24 08:32:36;;;;;;;9.30;2.00;;;9.40;99.90;;;;;;5018740;28;20022;-83
2022/02/24 08:35:03;;;;;;;4.80;2.10;;;9.50;99.90;;;;;;5014078;28;20026;-84
2022/02/24 08:37:29;;;;;;;4.82;1.85;;;9.60;99.90;;;;;;5011039;28;20073;-84
2022/02/24 08:39:55;;;;;;;4.25;2.15;;;9.60;99.90;;;;;;5013001;28;20630;-81
2022/02/24 08:42:25;;;;;;;8.77;2.40;;;10.30;99.90;;;;;;5017358;28;20025;-83
2022/02/24 08:44:52;;;;;;;4.32;1.75;;;9.90;99.90;;;;;;5015229;28;20030;-86
2022/02/24 08:47:18;;;;;;;6.13;2.05;;;10.00;99.90;;;;;;5019783;28;20085;-85
2022/02/24 08:49:45;;;;;;;4.45;1.98;;;11.00;99.90;;;;;;5033500;28;20028;-84
2022/02/24 08:52:11;;;;;;;5.20;2.05;;;10.10;99.90;;;;;;5012835;28;20087;-84
2022/02/24 08:54:37;;;;;;;6.00;1.88;;;10.10;99.90;;;;;;5013852;28;20026;-83
2022/02/24 08:57:04;;;;;;;4.85;2.10;;;10.10;99.90;;;;;;5029196;28;20045;-87
2022/02/24 08:59:31;;;;;;;13.20;2.03;;;10.10;99.90;;;;;;5015424;28;20017;-84
2022/02/24 09:01:57;;;;;;;5.50;1.88;;;10.10;99.90;;;;;;5016832;28;20105;-87
2022/02/24 09:04:23;;;;;;;6.80;2.22;;;10.10;99.90;;;;;;5011839;28;20036;-86
2022/02/24 09:06:49;;;;;;;11.00;2.47;;;10.10;99.90;;;;;;5009963;28;20026;-85
2022/02/24 09:09:16;;;;;;;5.28;2.15;;;10.10;99.90;;;;;;5011305;28;20491;-86
2022/02/24 09:11:42;;;;;;;3.70;1.75;;;10.20;99.90;;;;;;5033527;28;20649;-87
2022/02/24 09:14:07;;;;;;;4.03;2.08;;;10.30;99.90;;;;;;5014646;28;20026;-85
2022/02/24 09:16:33;;;;;;;7.88;2.30;;;11.60;99.90;;;;;;5011089;28;20040;-89
2022/02/24 09:18:59;;;;;;;7.22;1.90;;;10.30;99.90;;;;;;5008282;28;20033;-86
2022/02/24 09:21:25;;;;;;;10.50;2.78;;;10.30;99.90;;;;;;5012244;28;20029;-86
2022/02/24 09:23:51;;;;;;;11.02;2.67;;;10.40;99.90;;;;;;5014301;28;20022;-88
2022/02/24 09:26:17;;;;;;;12.18;2.63;;;10.80;99.90;;;;;;5011880;28;20048;-85
2022/02/24 09:28:43;;;;;;;5.57;1.95;;;10.20;99.90;;;;;;5028727;28;20058;-87
2022/02/24 09:31:09;;;;;;;7.78;2.28;;;10.20;99.90;;;;;;5016953;28;20035;-84
2022/02/24 09:33:35;;;;;;;5.68;2.10;;;11.00;99.90;;;;;;5032820;28;20120;-87
2022/02/24 09:36:01;;;;;;;5.38;2.25;;;10.40;99.90;;;;;;5026656;28;20052;-85
2022/02/24 09:38:27;;;;;;;6.43;2.70;;;10.30;99.90;;;;;;5029083;28;20030;-88
2022/02/24 09:40:55;;;;;;;5.32;2.10;;;10.30;99.90;;;;;;5007882;28;20028;-87
2022/02/24 09:43:27;;;;;;;6.22;2.20;;;10.40;99.90;;;;;;5008381;28;20227;-89
2022/02/24 09:46:01;;;;;;;7.43;2.38;;;10.50;99.90;;;;;;5030165;28;20022;-87
2022/02/24 09:48:29;;;;;;;5.38;2.83;;;10.50;99.90;;;;;;5007547;28;20166;-89
2022/02/24 09:50:57;;;;;;;6.80;2.20;;;10.50;99.90;;;;;;5004005;28;20330;-84
2022/02/24 09:53:24;;;;;;;7.13;2.40;;;10.60;99.90;;;;;;5000193;28;20025;-86
2022/02/24 09:55:50;;;;;;;4.72;2.22;;;10.40;99.90;;;;;;4999662;28;20434;-87
2022/02/24 09:58:17;;;;;;;5.10;2.45;;;10.50;99.90;;;;;;5001854;28;20030;-88
2022/02/24 10:00:42;;;;;;;4.97;2.45;;;10.50;99.90;;;;;;5008438;28;20049;-85
2022/02/24 10:03:40;;;;;;;3.40;2.03;;;10.60;99.90;;;;;;5017202;28;20025;-88
2022/02/24 10:06:07;;;;;;;6.03;2.50;;;10.60;99.90;;;;;;5010381;28;20025;-86
2022/02/24 10:08:36;;;;;;;6.53;2.38;;;10.80;99.90;;;;;;5028549;28;20064;-84
2022/02/24 10:11:14;;;;;;;6.28;2.58;;;9.70;99.90;;;;;;5011994;28;20037;-87
2022/02/24 10:13:40;;;;;;;5.38;2.45;;;10.70;99.90;;;;;;5017752;28;20452;-86
2022/02/24 10:16:05;;;;;;;6.75;2.85;;;10.80;99.90;;;;;;5023524;28;20068;-85
2022/02/24 10:18:33;;;;;;;7.05;2.58;;;10.90;99.90;;;;;;5012926;28;20056;-86
2022/02/24 10:21:03;;;;;;;8.55;3.03;;;11.00;99.90;;;;;;5022089;28;20029;-86
2022/02/24 10:23:33;;;;;;;6.72;2.40;;;11.20;99.90;;;;;;5004798;28;20037;-90
2022/02/24 10:26:04;;;;;;;8.00;2.80;;;11.30;99.90;;;;;;5022315;28;20085;-88
2022/02/24 10:28:49;;;;;;;6.28;2.83;;;11.10;99.90;;;;;;5019794;28;20053;-89
2022/02/24 10:31:19;;;;;;;6.00;2.45;;;11.00;99.90;;;;;;5015267;28;20072;-86
2022/02/24 10:33:50;;;;;;;5.75;2.63;;;11.90;99.90;;;;;;5018053;28;20029;-86
2022/02/24 10:36:23;;;;;;;;;;;10.90;99.90;;;;;;5004314;28;20226;-85
2022/02/24 10:39:13;;;;;;;4.63;2.55;;;11.00;99.90;;;;;;5013045;28;20003;-88
2022/02/24 10:41:44;;;;;;;5.60;2.40;;;10.80;99.90;;;;;;4998589;28;20034;-88
2022/02/24 10:44:13;;;;;;;6.53;2.45;;;10.80;99.90;;;;;;5015269;28;20418;-87
2022/02/24 10:46:39;;;;;;;7.80;2.88;;;10.80;99.90;;;;;;5018531;28;20030;-87
2022/02/24 10:49:05;;;;;;;5.93;2.65;;;10.80;99.90;;;;;;5003296;28;20491;-87
2022/02/24 10:51:32;;;;;;;7.40;2.78;;;10.70;99.90;;;;;;5003346;28;20102;-85
2022/02/24 10:54:10;;;;;;;7.10;2.63;;;10.70;99.90;;;;;;4999003;28;20029;-86
2022/02/24 10:56:38;;;;;;;8.43;2.78;;;10.70;99.90;;;;;;5009299;28;20021;-88
2022/02/24 10:59:05;;;;;;;7.78;2.70;;;10.80;99.90;;;;;;5020219;28;20025;-84
2022/02/24 11:01:31;;;;;;;6.47;2.83;;;10.80;99.90;;;;;;5030366;28;20022;-87
2022/02/24 11:03:59;;;;;;;6.72;3.17;;;11.80;99.90;;;;;;5035349;28;20036;-87
2022/02/24 11:06:27;;;;;;;6.75;2.60;;;10.90;99.90;;;;;;5004868;28;20036;-85
2022/02/24 11:08:54;;;;;;;4.90;2.30;;;11.00;99.90;;;;;;5010664;28;20032;-84
2022/02/24 11:11:24;;;;;;;5.55;2.30;;;11.30;99.90;;;;;;5012779;28;20026;-84
2022/02/24 11:13:50;;;;;;;6.63;2.88;;;11.20;99.90;;;;;;5018632;28;20043;-85
2022/02/24 11:16:17;;;;;;;7.60;3.00;;;11.20;99.90;;;;;;5019163;28;20136;-85
2022/02/24 11:18:45;;;;;;;5.82;2.60;;;11.10;99.90;;;;;;5003583;28;20105;-89
2022/02/24 11:21:17;;;;;;;9.18;3.03;;;11.10;99.90;;;;;;5048802;22;20041;-82
2022/02/24 11:23:47;;;;;;;8.13;2.60;;;11.10;99.90;;;;;;5041180;28;20025;-82
2022/02/24 11:26:27;;;;;;;7.50;2.75;;;11.20;99.90;;;;;;5039668;28;20069;-81
2022/02/24 11:28:59;;;;;;;7.05;3.10;;;11.30;99.90;;;;;;5050100;22;20052;-79
2022/02/24 11:31:41;;;;;;;5.32;2.53;;;11.40;99.90;;;;;;5028736;28;20014;-79
2022/02/24 11:36:56;;;;;;;9.18;2.72;;;11.30;99.90;;;;;;4395169;26;20066;-81
2022/02/24 11:39:26;;;;;;;6.38;3.20;;;11.90;99.90;;;;;;5086958;22;20045;-78
2022/02/24 11:41:56;;;;;;;10.68;3.33;;;11.50;99.90;;;;;;5025911;28;20034;-78
2022/02/24 11:44:37;;;;;;;5.40;2.65;;;11.50;99.90;;;;;;5075725;22;20030;-81
2022/02/24 11:47:19;;;;;;;4.40;2.50;;;11.50;99.90;;;;;;5021747;28;20046;-79
2022/02/24 11:49:59;;;;;;;6.55;3.00;;;11.30;99.90;;;;;;5020936;28;20018;-80
2022/02/24 11:52:43;;;;;;;8.13;2.90;;;11.50;99.90;;;;;;4995445;28;20173;-80
2022/02/24 11:55:43;;;;;;;16.08;6.57;;;11.80;99.90;;;;;;5016986;28;20026;-80
2022/02/24 11:58:37;;;;;;;5.10;2.72;;;11.60;99.90;;;;;;5004061;28;20022;-80
2022/02/24 12:01:11;;;;;;;5.80;2.92;;;11.60;99.90;;;;;;5012781;28;20018;-80
2022/02/24 12:03:51;;;;;;;4.43;2.78;;;11.70;99.90;;;;;;5005093;28;20482;-83
2022/02/24 12:06:46;;;;;;;6.88;2.40;;;13.20;99.90;;;;;;5007300;28;20391;-80
2022/02/24 12:09:25;;;;;;;8.02;3.17;;;11.80;99.90;;;;;;5009610;28;20029;-80
2022/02/24 12:12:20;;;;;;;;;;;;;;;;;;;;;
2022/02/24 12:14:53;;;;;;;4.97;2.05;;;11.80;99.90;;;;;;5022662;28;20105;-79
2022/02/24 12:17:22;;;;;;;6.00;2.50;;;11.90;99.90;;;;;;5014875;28;20034;-80
2022/02/24 12:20:02;;;;;;;9.02;2.90;;;12.00;99.90;;;;;;5016768;28;20046;-80
2022/02/24 12:22:36;;;;;;;7.18;2.78;;;11.80;99.90;;;;;;5004163;28;20040;-80
2022/02/24 12:25:33;;;;;;;6.13;2.65;;;11.10;99.90;;;;;;5021007;28;20030;-79
2022/02/24 12:28:38;;;;;;;5.20;2.40;;;11.80;99.90;;;;;;5018301;28;20536;-80
2022/02/24 12:31:18;;;;;;;6.18;2.55;;;11.90;99.90;;;;;;4996764;28;20046;-80
2022/02/24 12:33:50;;;;;;;4.95;2.30;;;12.00;99.90;;;;;;4997731;28;20026;-78
2022/02/24 12:36:19;;;;;;;5.55;2.30;;;11.90;99.90;;;;;;5010005;28;20057;-81
2022/02/24 12:38:50;;;;;;;4.82;2.20;;;12.10;99.90;;;;;;5020907;28;20033;-79
2022/02/24 12:41:19;;;;;;;;;;;11.90;99.90;;;;;;5019311;28;20018;-80
2022/02/24 12:43:46;;;;;;;3.85;2.10;;;11.80;99.90;;;;;;5001769;28;19917;-80
2022/02/24 12:46:13;;;;;;;5.18;2.20;;;11.80;99.90;;;;;;5017901;28;20038;-79
2022/02/24 12:48:40;;;;;;;7.40;2.47;;;11.90;99.90;;;;;;5017949;28;20065;-79
2022/02/24 12:51:10;;;;;;;5.80;2.47;;;11.80;99.90;;;;;;5003121;28;20026;-81
2022/02/24 12:53:37;;;;;;;4.32;2.10;;;12.10;99.90;;;;;;5014914;28;20022;-80
2022/02/24 12:56:08;;;;;;;5.72;1.85;;;12.30;99.90;;;;;;5008209;28;20022;-80
2022/02/24 12:58:35;;;;;;;3.65;1.40;;;12.10;99.90;;;;;;4982761;28;20064;-80
2022/02/24 13:01:04;;;;;;;3.58;1.40;;;13.30;99.90;;;;;;5002138;28;20139;-79
2022/02/24 13:03:30;;;;;;;5.10;2.63;;;11.00;99.90;;;;;;5021034;28;20029;-80